This is the latest recevied weather packets stored in our database for station/object AA8FM-13. If no packets are shown the sender has not sent any weather packets the latest 10 day(s).
| Time | Temp. | Humidity | Pressure | Rain* | Wind** | Luminosity | Snow |
|---|---|---|---|---|---|---|---|
| 1777297222 | 14.44° C | 66% | 1018.7 hPa | 0 mm | - | 369 W/m² | - |
| 1777296920 | 14.44° C | 66% | 1018.6 hPa | 0 mm | - | 352 W/m² | - |
| 1777296617 | 13.89° C | 67% | 1018.9 hPa | 0 mm | - | 338 W/m² | - |
| 1777296286 | 13.89° C | 68% | 1018.8 hPa | 0 mm | - | 329 W/m² | - |
| 1777295982 | 12.78° C | 71% | 1018.7 hPa | 0 mm | - | 314 W/m² | - |
| 1777295680 | 12.78° C | 71% | 1018.9 hPa | 0 mm | - | 314 W/m² | - |
| 1777295377 | 12.22° C | 73% | 1018.9 hPa | 0 mm | - | 306 W/m² | - |
| 1777295075 | 11.67° C | 77% | 1019 hPa | 0 mm | - | 274 W/m² | - |
| 1777294771 | 10.56° C | 78% | 1018.8 hPa | 0 mm | - | 220 W/m² | - |
| 1777294467 | 8.89° C | 84% | 1019 hPa | 0 mm | - | 37 W/m² | - |
| 1777294164 | 8.89° C | 84% | 1019 hPa | 0 mm | - | 37 W/m² | - |
| 1777293861 | 8.33° C | 86% | 1019 hPa | 0 mm | - | 35 W/m² | - |
| 1777293556 | 7.78° C | 90% | 1019.2 hPa | 0 mm | - | 31 W/m² | - |
| 1777293252 | 7.22° C | 99% | 1019 hPa | 0 mm | - | 30 W/m² | - |
| 1777292950 | 6.67° C | 99% | 1019.4 hPa | 0 mm | - | 29 W/m² | - |
| 1777292647 | 6.67° C | 99% | 1019.2 hPa | 0 mm | - | 30 W/m² | - |
| 1777292343 | 6.67° C | 99% | 1019.3 hPa | 0 mm | - | 28 W/m² | - |
| 1777292039 | 6.11° C | 99% | 1019.2 hPa | 0 mm | - | 27 W/m² | - |
| 1777291735 | 6.11° C | 99% | 1019.2 hPa | 0 mm | - | 27 W/m² | - |
| 1777291432 | 5.56° C | 99% | 1019.1 hPa | 0 mm | - | 26 W/m² | - |
| 1777291129 | 5.56° C | 99% | 1019 hPa | 0 mm | - | 26 W/m² | - |
| 1777290826 | 5° C | 99% | 1019.1 hPa | 0 mm | - | 27 W/m² | - |
| 1777290523 | 5° C | 99% | 1019.1 hPa | 0 mm | - | 23 W/m² | - |
| 1777290219 | 4.44° C | 99% | 1019 hPa | 0 mm | - | 23 W/m² | - |
| 1777289916 | 4.44° C | 99% | 1018.8 hPa | 0 mm | - | 22 W/m² | - |
* Rain latest hour (hover to see other rain measurements)
** Current wind speed in m/s (hover to see current wind gust speed)